createdAt,value
2018-12-03T00:01:53.759Z,55.06
2018-12-03T00:04:23.838Z,54.94
2018-12-03T00:06:51.823Z,55.14
2018-12-03T00:09:19.727Z,54.97
2018-12-03T00:11:46.609Z,55.14
2018-12-03T00:14:14.201Z,55.05
2018-12-03T00:16:41.023Z,55.40
2018-12-03T00:19:08.251Z,55.19
2018-12-03T00:21:35.079Z,55.10
2018-12-03T00:24:01.950Z,55.21
2018-12-03T00:26:28.768Z,55.49
2018-12-03T00:28:55.539Z,55.33
2018-12-03T00:31:22.358Z,55.02
2018-12-03T00:33:49.174Z,55.06
2018-12-03T00:36:15.990Z,54.86
2018-12-03T00:38:43.561Z,55.19
2018-12-03T00:41:10.427Z,55.07
2018-12-03T00:43:37.275Z,55.10
2018-12-03T00:46:04.121Z,55.13
2018-12-03T00:48:31.925Z,55.36
2018-12-03T00:50:59.687Z,55.03
2018-12-03T00:53:27.309Z,55.28
2018-12-03T00:55:54.173Z,54.95
2018-12-03T00:58:21.921Z,54.99
2018-12-03T01:00:49.727Z,55.21
2018-12-03T01:03:17.568Z,55.23
2018-12-03T01:05:45.332Z,55.47
2018-12-03T01:08:13.961Z,55.36
2018-12-03T01:10:41.645Z,55.49
2018-12-03T01:13:08.544Z,55.40
2018-12-03T01:15:35.351Z,55.52
2018-12-03T01:18:02.977Z,55.33
2018-12-03T01:20:29.850Z,55.44
2018-12-03T01:22:56.712Z,55.49
2018-12-03T01:25:24.437Z,55.75
2018-12-03T01:27:52.244Z,55.85
2018-12-03T01:30:19.046Z,55.29
2018-12-03T01:32:45.965Z,55.82
2018-12-03T01:35:14.773Z,55.82
2018-12-03T01:37:41.634Z,55.51
2018-12-03T01:40:09.936Z,55.80
2018-12-03T01:42:37.672Z,55.65
2018-12-03T01:45:07.653Z,55.84
2018-12-03T01:47:34.498Z,55.80
2018-12-03T01:50:02.380Z,55.72
2018-12-03T01:52:29.256Z,55.70
2018-12-03T01:54:56.997Z,55.83
2018-12-03T01:57:24.640Z,55.88
2018-12-03T01:59:51.489Z,55.84
2018-12-03T02:02:19.294Z,55.95
2018-12-03T02:04:46.116Z,56.05
2018-12-03T02:07:15.005Z,56.00
2018-12-03T02:09:41.820Z,55.87
2018-12-03T02:12:09.621Z,56.24
2018-12-03T02:14:36.563Z,56.18
2018-12-03T02:17:03.452Z,56.40
2018-12-03T02:19:31.236Z,56.35
2018-12-03T02:21:58.951Z,56.23
2018-12-03T02:24:26.659Z,56.23
2018-12-03T02:27:20.984Z,56.27
2018-12-03T02:29:47.004Z,56.16
2018-12-03T02:32:19.296Z,56.30
2018-12-03T02:34:48.235Z,56.21
2018-12-03T02:37:14.234Z,56.33
2018-12-03T02:39:43.340Z,56.29
2018-12-03T02:42:15.441Z,56.29
2018-12-03T02:44:41.464Z,56.31
2018-12-03T02:47:10.409Z,56.00
2018-12-03T02:49:39.437Z,55.69
2018-12-03T02:52:05.458Z,55.73
2018-12-03T02:54:31.518Z,55.95
2018-12-03T02:57:00.569Z,56.09
2018-12-03T02:59:26.569Z,56.11
2018-12-03T03:01:52.594Z,56.13
2018-12-03T03:04:21.815Z,56.26
2018-12-03T03:06:50.858Z,56.07
2018-12-03T03:09:19.963Z,56.10
2018-12-03T03:11:45.974Z,56.21
2018-12-03T03:14:15.227Z,56.19
2018-12-03T03:16:41.273Z,56.18
2018-12-03T03:19:07.287Z,56.34
2018-12-03T03:21:36.373Z,56.38
2018-12-03T03:24:05.384Z,56.39
2018-12-03T03:26:31.448Z,56.41
2018-12-03T03:29:00.480Z,56.27
2018-12-03T03:31:29.545Z,56.39
2018-12-03T03:33:58.552Z,56.29
2018-12-03T03:36:24.908Z,56.43
2018-12-03T03:38:53.703Z,56.47
2018-12-03T03:41:22.808Z,56.55
2018-12-03T03:43:51.831Z,56.44
2018-12-03T03:46:17.897Z,56.44
2018-12-03T03:48:43.902Z,56.47
2018-12-03T03:51:09.967Z,56.41
2018-12-03T03:53:39.024Z,56.59
2018-12-03T03:56:05.082Z,56.65
2018-12-03T03:58:31.101Z,56.59
2018-12-03T04:01:00.142Z,56.70
2018-12-03T04:03:29.311Z,56.59
2018-12-03T04:05:55.329Z,56.58
2018-12-03T04:08:21.662Z,56.60
2018-12-03T04:10:50.528Z,56.67
2018-12-03T04:13:19.695Z,56.75
2018-12-03T04:15:48.711Z,56.76
2018-12-03T04:18:18.017Z,56.71
2018-12-03T04:20:44.031Z,56.70
2018-12-03T04:23:13.180Z,56.64
2018-12-03T04:25:39.542Z,56.62
2018-12-03T04:28:08.450Z,56.59
2018-12-03T04:30:34.458Z,56.77
2018-12-03T04:33:00.527Z,56.77
2018-12-03T04:35:26.537Z,56.71
2018-12-03T04:37:52.549Z,56.74
2018-12-03T04:40:18.576Z,56.72
2018-12-03T04:42:44.952Z,56.63
2018-12-03T04:45:11.003Z,56.67
2018-12-03T04:47:39.789Z,56.65
2018-12-03T04:50:08.864Z,56.90
2018-12-03T04:52:34.871Z,56.74
2018-12-03T04:55:00.889Z,56.76
2018-12-03T04:57:26.901Z,56.72
2018-12-03T04:59:56.021Z,56.63
2018-12-03T05:02:22.082Z,56.65
2018-12-03T05:04:48.091Z,56.51
2018-12-03T05:07:14.162Z,56.49
2018-12-03T05:09:40.167Z,56.44
2018-12-03T05:12:09.197Z,56.31
2018-12-03T05:14:38.275Z,56.43
2018-12-03T05:17:04.276Z,56.54
2018-12-03T05:19:33.366Z,56.52
2018-12-03T05:22:02.435Z,56.44
2018-12-03T05:24:31.500Z,56.69
2018-12-03T05:26:57.519Z,56.56
2018-12-03T05:29:23.515Z,56.46
2018-12-03T05:31:49.483Z,56.48
2018-12-03T05:34:18.676Z,56.51
2018-12-03T05:36:47.713Z,56.65
2018-12-03T05:39:16.938Z,56.72
2018-12-03T05:41:48.986Z,56.71
2018-12-03T05:44:18.026Z,56.62
2018-12-03T05:46:44.048Z,56.69
2018-12-03T05:49:16.258Z,56.80
2018-12-03T05:51:44.782Z,56.81
2018-12-03T05:54:14.629Z,56.90
2018-12-03T05:56:43.962Z,56.88
2018-12-03T05:59:16.171Z,56.92
2018-12-03T06:01:44.947Z,56.98
2018-12-03T06:04:10.953Z,57.03
2018-12-03T06:06:36.966Z,56.92
2018-12-03T06:09:05.995Z,56.98
2018-12-03T06:11:35.268Z,56.86
2018-12-03T06:14:01.329Z,57.01
2018-12-03T06:16:27.335Z,56.94
2018-12-03T06:18:56.362Z,57.03
2018-12-03T06:21:22.377Z,57.10
2018-12-03T06:23:51.562Z,57.03
2018-12-03T06:26:20.583Z,56.91
2018-12-03T06:28:46.603Z,57.02
2018-12-03T06:31:15.384Z,57.04
2018-12-03T06:33:41.406Z,57.13
2018-12-03T06:36:07.422Z,57.19
2018-12-03T06:38:36.607Z,57.12
2018-12-03T06:41:02.621Z,57.18
2018-12-03T06:43:31.674Z,57.13
2018-12-03T06:45:57.699Z,57.18
2018-12-03T06:48:26.801Z,57.20
2018-12-03T06:50:52.830Z,57.33
2018-12-03T06:53:21.835Z,57.29
2018-12-03T06:55:51.129Z,57.42
2018-12-03T06:58:20.170Z,57.31
2018-12-03T07:00:49.294Z,57.34
2018-12-03T07:03:18.338Z,57.32
2018-12-03T07:05:47.411Z,57.41
2018-12-03T07:08:16.443Z,57.44
2018-12-03T07:10:42.575Z,57.46
2018-12-03T07:13:08.646Z,57.35
2018-12-03T07:15:34.624Z,57.56
2018-12-03T07:18:00.636Z,57.49
2018-12-03T07:20:26.647Z,57.53
2018-12-03T07:22:52.696Z,57.54
2018-12-03T07:25:21.498Z,57.46
2018-12-03T07:27:50.703Z,57.79
2018-12-03T07:30:16.784Z,58.11
2018-12-03T07:32:46.614Z,58.31
2018-12-03T07:35:13.893Z,58.10
2018-12-03T07:37:46.207Z,57.98
2018-12-03T07:40:15.280Z,57.98
2018-12-03T07:42:44.430Z,57.84
2018-12-03T07:45:13.471Z,58.02
2018-12-03T07:47:45.260Z,58.10
2018-12-03T07:50:14.243Z,58.07
2018-12-03T07:52:40.252Z,58.03
2018-12-03T07:55:09.277Z,58.12
2018-12-03T07:57:35.707Z,58.41
2018-12-03T08:00:01.749Z,58.16
2018-12-03T08:02:27.817Z,58.20
2018-12-03T08:04:56.868Z,58.21
2018-12-03T08:07:22.891Z,58.31
2018-12-03T08:09:48.915Z,58.39
2018-12-03T08:12:14.929Z,58.46
2018-12-03T08:14:40.943Z,58.49
2018-12-03T08:17:06.993Z,58.42
2018-12-03T08:19:33.027Z,58.76
2018-12-03T08:21:59.453Z,58.40
2018-12-03T08:24:28.505Z,58.42
2018-12-03T08:26:54.522Z,58.53
2018-12-03T08:29:20.532Z,58.60
2018-12-03T08:31:46.599Z,58.57
2018-12-03T08:34:15.814Z,58.62
2018-12-03T08:36:44.832Z,58.71
2018-12-03T08:39:14.055Z,58.65
2018-12-03T08:41:46.477Z,58.76
2018-12-03T08:44:13.556Z,58.64
2018-12-03T08:46:39.700Z,59.09
2018-12-03T08:49:05.779Z,58.95
2018-12-03T08:51:31.845Z,58.85
2018-12-03T08:53:57.906Z,58.60
2018-12-03T08:56:23.974Z,58.65
2018-12-03T08:58:49.997Z,58.62
2018-12-03T09:01:16.006Z,58.59
2018-12-03T09:03:44.721Z,58.60
2018-12-03T09:06:10.879Z,58.58
2018-12-03T09:08:37.214Z,58.68
2018-12-03T09:11:04.243Z,58.74
2018-12-03T09:13:30.256Z,58.46
2018-12-03T09:15:59.330Z,58.39
2018-12-03T09:18:27.530Z,58.10
2018-12-03T09:20:53.586Z,57.99
2018-12-03T09:23:19.596Z,58.16
2018-12-03T09:25:45.605Z,58.07
2018-12-03T09:28:11.630Z,58.44
2018-12-03T09:30:37.646Z,58.31
2018-12-03T09:33:03.654Z,58.26
2018-12-03T09:35:30.068Z,58.37
2018-12-03T09:37:56.091Z,58.16
2018-12-03T09:40:22.144Z,58.42
2018-12-03T09:42:48.157Z,58.37
2018-12-03T09:45:14.167Z,58.14
2018-12-03T09:47:40.177Z,58.13
2018-12-03T09:50:08.425Z,58.39
2018-12-03T09:52:34.443Z,58.68
2018-12-03T09:55:04.461Z,58.67
2018-12-03T09:57:30.460Z,58.11
2018-12-03T09:59:59.296Z,58.52
2018-12-03T10:02:25.299Z,58.54
2018-12-03T10:04:54.567Z,58.64
2018-12-03T10:07:20.921Z,58.65
2018-12-03T10:09:49.915Z,58.60
2018-12-03T10:12:18.939Z,58.76
2018-12-03T10:14:48.241Z,58.82
2018-12-03T10:17:17.696Z,59.87
2018-12-03T10:19:44.173Z,60.40
2018-12-03T10:22:16.230Z,60.85
2018-12-03T10:24:45.254Z,60.59
2018-12-03T10:27:14.286Z,60.01
2018-12-03T10:29:40.319Z,59.24
2018-12-03T10:32:11.090Z,58.67
2018-12-03T10:34:37.105Z,58.52
2018-12-03T10:37:05.886Z,58.81
2018-12-03T10:39:31.892Z,58.64
2018-12-03T10:41:57.924Z,58.94
2018-12-03T10:44:23.957Z,58.65
2018-12-03T10:46:49.976Z,58.92
2018-12-03T10:49:16.881Z,58.62
2018-12-03T10:51:45.849Z,58.57
2018-12-03T10:54:11.913Z,58.58
2018-12-03T10:56:37.926Z,58.39
2018-12-03T10:59:04.342Z,58.81
2018-12-03T11:01:32.263Z,58.98
2018-12-03T11:04:01.055Z,58.88
2018-12-03T11:06:27.082Z,58.88
2018-12-03T11:08:53.105Z,58.88
2018-12-03T11:11:19.531Z,59.23
2018-12-03T11:13:45.840Z,58.93
2018-12-03T11:16:14.848Z,59.08
2018-12-03T11:18:40.936Z,58.98
2018-12-03T11:21:07.044Z,58.87
2018-12-03T11:23:34.547Z,58.73
2018-12-03T11:26:01.183Z,58.70
2018-12-03T11:28:31.001Z,58.71
2018-12-03T11:30:57.028Z,58.96
2018-12-03T11:33:23.073Z,58.93
2018-12-03T11:35:49.110Z,58.68
2018-12-03T11:38:15.472Z,59.03
2018-12-03T11:40:41.534Z,58.94
2018-12-03T11:43:07.880Z,58.85
2018-12-03T11:45:36.953Z,58.78
2018-12-03T11:48:02.975Z,59.19
2018-12-03T11:50:29.402Z,58.99
2018-12-03T11:52:55.479Z,58.98
2018-12-03T11:55:24.558Z,58.81
2018-12-03T11:57:53.763Z,58.83
2018-12-03T12:00:19.818Z,58.53
2018-12-03T12:02:45.844Z,58.69
2018-12-03T12:05:15.309Z,58.93
2018-12-03T12:07:42.425Z,59.09
2018-12-03T12:10:11.622Z,58.93
2018-12-03T12:12:40.775Z,58.86
2018-12-03T12:15:09.594Z,58.87
2018-12-03T12:17:35.606Z,58.60
2018-12-03T12:20:04.679Z,58.81
2018-12-03T12:22:33.710Z,58.90
2018-12-03T12:24:59.739Z,58.66
2018-12-03T12:27:28.824Z,58.37
2018-12-03T12:29:57.955Z,58.33
2018-12-03T12:32:27.010Z,57.98
2018-12-03T12:34:53.071Z,58.16
2018-12-03T12:37:19.090Z,58.04
2018-12-03T12:39:48.601Z,58.10
2018-12-03T12:42:17.442Z,58.00
2018-12-03T12:44:46.650Z,58.30
2018-12-03T12:47:16.074Z,58.27
2018-12-03T12:49:45.015Z,58.10
2018-12-03T12:52:11.069Z,58.01
2018-12-03T12:54:37.087Z,58.23
2018-12-03T12:57:06.124Z,58.34
2018-12-03T12:59:35.216Z,58.25
2018-12-03T13:02:05.510Z,58.24
2018-12-03T13:04:34.492Z,58.41
2018-12-03T13:07:03.594Z,58.31
2018-12-03T13:09:29.618Z,58.39
2018-12-03T13:11:55.628Z,58.42
2018-12-03T13:14:21.652Z,58.31
2018-12-03T13:16:50.839Z,58.40
2018-12-03T13:19:16.853Z,58.39
2018-12-03T13:21:46.132Z,58.43
2018-12-03T13:24:13.416Z,58.50
2018-12-03T13:26:39.472Z,58.11
2018-12-03T13:29:08.300Z,58.44
2018-12-03T13:31:37.452Z,58.41
2018-12-03T13:34:04.025Z,58.50
2018-12-03T13:36:33.048Z,58.22
2018-12-03T13:39:02.094Z,58.42
2018-12-03T13:41:31.271Z,58.52
2018-12-03T13:44:00.345Z,58.53
2018-12-03T13:46:26.360Z,58.26
2018-12-03T13:48:55.375Z,58.38
2018-12-03T13:51:24.522Z,58.51
2018-12-03T13:53:53.547Z,58.26
2018-12-03T13:56:22.835Z,58.22
2018-12-03T13:58:51.876Z,58.21
2018-12-03T14:01:21.137Z,58.23
2018-12-03T14:03:47.605Z,58.28
2018-12-03T14:06:14.083Z,58.28
2018-12-03T14:08:40.202Z,58.43
2018-12-03T14:11:06.625Z,58.31
2018-12-03T14:13:32.629Z,58.38
2018-12-03T14:15:58.642Z,58.46
2018-12-03T14:18:24.679Z,58.59
2018-12-03T14:20:50.681Z,58.19
2018-12-03T14:23:20.115Z,58.39
2018-12-03T14:25:49.460Z,58.42
2018-12-03T14:28:15.527Z,58.35
2018-12-03T14:30:44.663Z,58.38
2018-12-03T14:33:10.689Z,58.33
2018-12-03T14:35:39.766Z,58.53
2018-12-03T14:38:08.827Z,58.45
2018-12-03T14:40:37.993Z,58.31
2018-12-03T14:43:07.029Z,58.37
2018-12-03T14:45:33.041Z,57.93
2018-12-03T14:48:02.111Z,58.19
2018-12-03T14:50:28.176Z,58.23
2018-12-03T14:52:57.253Z,58.29
2018-12-03T14:55:23.276Z,58.35
2018-12-03T14:57:52.482Z,58.72
2018-12-03T15:00:21.514Z,58.65
2018-12-03T15:02:47.959Z,58.21
2018-12-03T15:05:16.945Z,58.72
2018-12-03T15:07:45.784Z,58.44
2018-12-03T15:10:14.834Z,58.46
2018-12-03T15:12:40.855Z,58.52
2018-12-03T15:15:09.876Z,58.22
2018-12-03T15:17:39.095Z,58.47
2018-12-03T15:20:08.128Z,58.45
2018-12-03T15:22:34.158Z,58.46
2018-12-03T15:25:03.680Z,58.44
2018-12-03T15:27:32.927Z,58.37
2018-12-03T15:29:58.938Z,58.22
2018-12-03T15:32:28.100Z,58.13
2018-12-03T15:34:54.469Z,58.37
2018-12-03T15:37:20.651Z,58.06
2018-12-03T15:39:46.669Z,58.04
2018-12-03T15:42:14.726Z,58.12
2018-12-03T15:44:40.745Z,58.03
2018-12-03T15:47:09.614Z,58.01
2018-12-03T15:49:38.816Z,57.91
2018-12-03T15:52:04.831Z,58.13
2018-12-03T15:54:33.852Z,57.97
2018-12-03T15:56:59.869Z,58.00
2018-12-03T15:59:25.897Z,58.03
2018-12-03T16:01:51.980Z,58.01
2018-12-03T16:04:18.165Z,58.08
2018-12-03T16:06:44.278Z,57.62
2018-12-03T16:09:10.310Z,57.67
2018-12-03T16:11:36.323Z,57.85
2018-12-03T16:14:02.343Z,57.72
2018-12-03T16:16:28.382Z,57.73
2018-12-03T16:18:54.394Z,57.59
2018-12-03T16:21:20.448Z,57.44
2018-12-03T16:23:46.509Z,57.54
2018-12-03T16:26:15.299Z,57.57
2018-12-03T16:28:44.922Z,57.58
2018-12-03T16:31:10.953Z,57.86
2018-12-03T16:33:37.001Z,57.59
2018-12-03T16:36:03.082Z,57.70
2018-12-03T16:38:32.082Z,57.59
2018-12-03T16:40:58.093Z,57.59
2018-12-03T16:43:24.116Z,57.67
2018-12-03T16:45:50.132Z,57.74
2018-12-03T16:48:16.154Z,57.92
2018-12-03T16:50:44.206Z,57.93
2018-12-03T16:53:10.217Z,57.56
2018-12-03T16:55:36.238Z,57.65
2018-12-03T16:58:02.252Z,57.69
2018-12-03T17:00:28.291Z,57.80
2018-12-03T17:02:54.360Z,57.63
2018-12-03T17:05:20.374Z,57.57
2018-12-03T17:07:46.799Z,57.61
2018-12-03T17:10:15.418Z,57.43
2018-12-03T17:12:41.546Z,57.36
2018-12-03T17:15:07.570Z,57.46
2018-12-03T17:17:36.653Z,57.51
2018-12-03T17:20:03.867Z,57.42
2018-12-03T17:22:29.865Z,57.39
2018-12-03T17:24:55.886Z,57.43
2018-12-03T17:27:24.656Z,57.41
2018-12-03T17:29:50.669Z,57.33
2018-12-03T17:32:16.735Z,57.52
2018-12-03T17:34:48.819Z,57.64
2018-12-03T17:37:15.322Z,57.52
2018-12-03T17:39:41.368Z,57.62
2018-12-03T17:42:07.550Z,57.54
2018-12-03T17:44:33.603Z,57.42
2018-12-03T17:46:59.615Z,57.40
2018-12-03T17:49:28.823Z,57.36
2018-12-03T17:51:54.837Z,57.45
2018-12-03T17:54:20.898Z,57.52
2018-12-03T17:56:46.919Z,57.18
2018-12-03T17:59:14.844Z,57.29
2018-12-03T18:01:43.991Z,57.18
2018-12-03T18:04:14.135Z,57.13
2018-12-03T18:06:40.736Z,57.46
2018-12-03T18:09:06.752Z,57.14
2018-12-03T18:11:35.766Z,57.17
2018-12-03T18:14:02.191Z,57.32
2018-12-03T18:16:28.338Z,57.22
2018-12-03T18:18:54.706Z,57.26
2018-12-03T18:21:21.021Z,57.26
2018-12-03T18:23:47.537Z,57.31
2018-12-03T18:26:16.957Z,57.18
2018-12-03T18:28:46.336Z,57.26
2018-12-03T18:31:14.763Z,57.18
2018-12-03T18:33:40.840Z,57.16
2018-12-03T18:36:06.817Z,57.13
2018-12-03T18:38:33.136Z,57.39
2018-12-03T18:41:03.361Z,57.13
2018-12-03T18:43:29.999Z,57.04
2018-12-03T18:45:56.009Z,56.83
2018-12-03T18:48:25.063Z,56.98
2018-12-03T18:50:51.128Z,56.83
2018-12-03T18:53:17.300Z,57.08
2018-12-03T18:55:43.378Z,56.90
2018-12-03T18:58:09.508Z,56.97
2018-12-03T19:00:35.531Z,56.70
2018-12-03T19:03:01.557Z,56.84
2018-12-03T19:05:28.004Z,56.88
2018-12-03T19:07:54.428Z,56.83
2018-12-03T19:10:20.440Z,56.91
2018-12-03T19:12:46.996Z,56.78
2018-12-03T19:15:16.055Z,56.90
2018-12-03T19:17:42.974Z,56.85
2018-12-03T19:20:09.112Z,56.62
2018-12-03T19:22:38.594Z,56.67
2018-12-03T19:25:07.382Z,56.60
2018-12-03T19:27:36.653Z,56.66
2018-12-03T19:30:03.529Z,56.69
2018-12-03T19:32:29.552Z,56.70
2018-12-03T19:34:58.913Z,56.65
2018-12-03T19:37:24.940Z,56.40
2018-12-03T19:39:53.810Z,56.68
2018-12-03T19:42:19.791Z,56.79
2018-12-03T19:44:49.054Z,56.37
2018-12-03T19:47:15.112Z,56.35
2018-12-03T19:49:41.136Z,56.49
2018-12-03T19:52:10.777Z,56.51
2018-12-03T19:54:39.826Z,56.69
2018-12-03T19:57:05.864Z,56.54
2018-12-03T19:59:32.294Z,56.44
2018-12-03T20:01:58.787Z,56.66
2018-12-03T20:04:43.249Z,56.41
2018-12-03T20:07:14.841Z,56.46
2018-12-03T20:09:40.987Z,56.24
2018-12-03T20:12:07.009Z,56.44
2018-12-03T20:14:35.971Z,56.36
2018-12-03T20:17:04.893Z,56.31
2018-12-03T20:19:30.921Z,56.40
2018-12-03T20:21:57.067Z,56.64
2018-12-03T20:24:23.204Z,56.46
2018-12-03T20:26:49.519Z,56.38
2018-12-03T20:29:18.710Z,56.30
2018-12-03T20:31:46.627Z,56.44
2018-12-03T20:34:14.671Z,56.40
2018-12-03T20:36:40.818Z,56.44
2018-12-03T20:39:11.772Z,56.39
2018-12-03T20:41:37.784Z,56.82
2018-12-03T20:44:05.119Z,56.36
2018-12-03T20:46:31.447Z,56.55
2018-12-03T20:48:57.462Z,56.08
2018-12-03T20:51:23.910Z,55.98
2018-12-03T20:53:50.371Z,56.11
2018-12-03T20:56:17.023Z,56.11
2018-12-03T20:58:49.092Z,56.07
2018-12-03T21:01:15.158Z,55.97
2018-12-03T21:03:44.284Z,56.05
2018-12-03T21:06:10.358Z,56.05
2018-12-03T21:08:39.622Z,56.21
2018-12-03T21:11:08.640Z,56.21
2018-12-03T21:13:37.940Z,56.13
2018-12-03T21:16:03.954Z,56.26
2018-12-03T21:18:29.965Z,56.25
2018-12-03T21:20:56.331Z,56.22
2018-12-03T21:23:22.386Z,56.17
2018-12-03T21:25:51.635Z,55.76
2018-12-03T21:28:17.651Z,56.23
2018-12-03T21:30:43.735Z,55.98
2018-12-03T21:33:09.743Z,55.75
2018-12-03T21:35:35.752Z,55.67
2018-12-03T21:38:01.775Z,55.60
2018-12-03T21:40:31.379Z,55.51
2018-12-03T21:42:57.396Z,55.40
2018-12-03T21:45:23.415Z,55.67
2018-12-03T21:47:52.433Z,55.59
2018-12-03T21:50:18.450Z,55.63
2018-12-03T21:52:44.454Z,55.51
2018-12-03T21:55:10.463Z,55.38
2018-12-03T21:57:36.492Z,55.43
2018-12-03T22:00:02.503Z,55.29
2018-12-03T22:02:28.565Z,55.44
2018-12-03T22:04:54.577Z,55.42
2018-12-03T22:07:21.031Z,55.88
2018-12-03T22:09:47.041Z,55.84
2018-12-03T22:12:16.246Z,55.55
2018-12-03T22:14:45.269Z,55.70
2018-12-03T22:17:14.283Z,55.46
2018-12-03T22:19:43.624Z,55.37
2018-12-03T22:22:15.341Z,55.36
2018-12-03T22:24:41.346Z,55.41
2018-12-03T22:27:10.127Z,55.51
2018-12-03T22:29:36.138Z,56.05
2018-12-03T22:32:02.195Z,55.38
2018-12-03T22:34:31.232Z,55.44
2018-12-03T22:36:57.250Z,55.38
2018-12-03T22:39:26.274Z,55.43
2018-12-03T22:41:52.691Z,55.44
2018-12-03T22:44:18.923Z,55.28
2018-12-03T22:46:44.932Z,55.33
2018-12-03T22:49:10.994Z,55.35
2018-12-03T22:51:37.008Z,55.41
2018-12-03T22:54:03.014Z,55.62
2018-12-03T22:56:29.075Z,55.52
2018-12-03T22:58:58.513Z,55.53
2018-12-03T23:01:27.819Z,55.49
2018-12-03T23:03:53.843Z,55.68
2018-12-03T23:06:23.297Z,55.52
2018-12-03T23:08:52.079Z,55.69
2018-12-03T23:11:18.085Z,55.77
2018-12-03T23:13:44.102Z,55.85
2018-12-03T23:16:13.219Z,55.49
2018-12-03T23:18:39.242Z,55.31
2018-12-03T23:21:05.259Z,55.60
2018-12-03T23:23:34.447Z,55.50
2018-12-03T23:26:03.882Z,55.66
2018-12-03T23:28:29.895Z,55.66
2018-12-03T23:30:58.669Z,55.62
2018-12-03T23:33:28.051Z,55.77
2018-12-03T23:35:54.968Z,55.55
2018-12-03T23:38:21.019Z,55.79
2018-12-03T23:40:47.027Z,55.77
2018-12-03T23:43:15.922Z,55.71
2018-12-03T23:45:44.655Z,55.82
2018-12-03T23:48:10.668Z,55.93
2018-12-03T23:50:37.049Z,55.62
2018-12-03T23:53:03.009Z,55.61
2018-12-03T23:55:29.162Z,55.51
2018-12-03T23:57:55.177Z,55.45
